Time;durP1;ratioP1;P1;durP2;ratioP2;P2;SDS_P1;SDS_P2;PMS_P1;PMS_P2;Temp;Humidity;BMP_temperature;BMP_pressure;BME280_temperature;BME280_humidity;BME280_pressure;Samples;Min_cycle;Max_cycle;Signal;HPM_P1;HPM_P2
2023/04/19 00:01:48;;;;;;;14.80;9.30;;;9.50;99.90;;;8.87;100.00;97770.84;4997299;28;20416;-38
2023/04/19 00:04:14;;;;;;;12.43;8.68;;;9.50;99.90;;;8.92;100.00;97783.91;5000027;28;20041;-38
2023/04/19 00:06:41;;;;;;;12.05;8.80;;;9.40;99.90;;;8.89;100.00;97779.56;4997038;28;20036;-38
2023/04/19 00:09:07;;;;;;;16.75;10.15;;;9.40;99.90;;;8.88;100.00;97775.22;5003527;28;20065;-38
2023/04/19 00:11:33;;;;;;;14.70;10.23;;;9.40;99.90;;;8.96;100.00;97780.28;5019817;28;20042;-38
2023/04/19 00:13:59;;;;;;;16.80;10.18;;;9.40;99.90;;;8.91;100.00;97776.91;5013591;28;20464;-38
2023/04/19 00:16:25;;;;;;;15.23;9.88;;;9.40;99.90;;;8.87;100.00;97776.09;5010733;28;20033;-38
2023/04/19 00:18:50;;;;;;;16.13;9.85;;;9.40;99.90;;;8.82;100.00;97771.88;5013488;28;20045;-38
2023/04/19 00:21:16;;;;;;;13.50;9.30;;;9.40;99.90;;;8.79;100.00;97772.78;5021482;28;20781;-38
2023/04/19 00:23:42;;;;;;;13.82;9.57;;;9.30;99.90;;;8.75;100.00;97768.50;5004085;28;20057;-38
2023/04/19 00:26:07;;;;;;;12.35;9.00;;;9.30;99.90;;;8.73;100.00;97767.69;5017303;28;20029;-38
2023/04/19 00:28:34;;;;;;;12.45;8.52;;;9.30;99.90;;;8.75;100.00;97764.09;5014038;28;20029;-38
2023/04/19 00:30:59;;;;;;;16.02;9.50;;;9.30;99.90;;;8.77;100.00;97766.69;5015451;28;20378;-38
2023/04/19 00:33:25;;;;;;;13.68;8.80;;;9.30;99.90;;;8.74;100.00;97770.28;5011017;28;20040;-38
2023/04/19 00:35:51;;;;;;;14.15;9.32;;;9.30;99.90;;;8.77;100.00;97771.97;5012321;28;20088;-38
2023/04/19 00:38:16;;;;;;;13.02;9.65;;;9.30;99.90;;;8.76;100.00;97770.25;5014972;28;20263;-38
2023/04/19 00:40:42;;;;;;;14.85;10.45;;;9.30;99.90;;;8.76;100.00;97763.22;5012768;28;20550;-38
2023/04/19 00:43:08;;;;;;;14.45;10.52;;;9.30;99.90;;;8.75;100.00;97763.25;5009758;28;20021;-38
2023/04/19 00:45:35;;;;;;;13.10;8.77;;;9.30;99.90;;;8.75;100.00;97760.63;5013789;28;20036;-38
2023/04/19 00:48:01;;;;;;;14.48;9.75;;;9.30;99.90;;;8.74;100.00;97758.88;4996290;28;20033;-39
2023/04/19 00:50:27;;;;;;;14.60;9.55;;;9.30;99.90;;;8.73;100.00;97759.78;5006723;28;20064;-38
2023/04/19 00:52:55;;;;;;;18.05;10.80;;;9.30;99.90;;;8.75;100.00;97758.00;4995886;28;20386;-38
2023/04/19 00:55:22;;;;;;;16.10;9.75;;;9.30;99.90;;;8.75;100.00;97758.00;5000287;28;20049;-38
2023/04/19 00:57:48;;;;;;;16.20;10.38;;;9.30;99.90;;;8.73;100.00;97765.91;5002880;28;20068;-38
2023/04/19 01:00:14;;;;;;;16.45;9.60;;;9.30;99.90;;;8.71;100.00;97758.97;5009534;28;20083;-38
2023/04/19 01:02:39;;;;;;;15.13;10.52;;;9.30;99.90;;;8.68;100.00;97756.41;5002735;28;20038;-38
2023/04/19 01:05:05;;;;;;;15.57;10.10;;;9.30;99.90;;;8.65;100.00;97751.22;4996485;28;20033;-38
2023/04/19 01:07:33;;;;;;;15.48;10.77;;;9.20;99.90;;;8.74;100.00;97753.63;4994355;28;20176;-38
2023/04/19 01:09:59;;;;;;;12.98;8.80;;;9.20;99.90;;;8.65;100.00;97754.72;4993165;28;20053;-38
2023/04/19 01:12:25;;;;;;;13.07;8.65;;;9.20;99.90;;;8.60;100.00;97749.56;4994229;28;20033;-38
2023/04/19 01:14:51;;;;;;;15.80;10.00;;;9.20;99.90;;;8.51;100.00;97730.53;4997691;28;20048;-39
2023/04/19 01:17:18;;;;;;;13.45;9.18;;;9.10;99.90;;;8.51;100.00;97739.25;5004903;28;20132;-38
2023/04/19 01:19:45;;;;;;;15.23;9.60;;;9.10;99.90;;;8.52;100.00;97746.22;5013345;28;20033;-38
2023/04/19 01:22:23;;;;;;;15.80;9.55;;;9.10;99.90;;;8.49;100.00;97743.69;5011136;28;20034;-38
2023/04/19 01:24:50;;;;;;;13.65;9.32;;;9.10;99.90;;;8.47;100.00;97741.97;5007811;28;20041;-38
2023/04/19 01:27:16;;;;;;;13.20;9.50;;;9.00;99.90;;;8.48;100.00;97735.84;5018521;28;20460;-38
2023/04/19 01:29:42;;;;;;;16.10;9.05;;;9.00;99.90;;;8.46;100.00;97732.38;5015070;28;20033;-38
2023/04/19 01:32:08;;;;;;;15.60;9.75;;;9.00;99.90;;;8.45;100.00;97731.50;5014925;28;20029;-38
2023/04/19 01:34:34;;;;;;;19.23;11.07;;;9.00;99.90;;;8.45;100.00;97735.91;5013887;28;20049;-38
2023/04/19 01:37:00;;;;;;;15.30;10.20;;;9.00;99.90;;;8.21;100.00;97694.34;5018344;28;20059;-38
2023/04/19 01:39:26;;;;;;;13.73;9.32;;;9.00;99.90;;;8.45;100.00;97725.38;5020497;28;20041;-38
2023/04/19 01:41:51;;;;;;;16.05;10.32;;;9.00;99.90;;;8.48;100.00;97727.97;5004247;28;20033;-38
2023/04/19 01:44:17;;;;;;;14.60;9.82;;;9.00;99.90;;;8.46;100.00;97725.34;5010424;28;20037;-37
2023/04/19 01:46:43;;;;;;;18.48;10.52;;;9.00;99.90;;;8.43;100.00;97716.69;5003618;28;20529;-37
2023/04/19 01:49:09;;;;;;;16.35;10.40;;;9.00;99.90;;;8.38;100.00;97720.25;5013004;28;20440;-37
2023/04/19 01:51:36;;;;;;;18.52;11.82;;;9.00;99.90;;;8.33;100.00;97716.00;4991884;28;20390;-38
2023/04/19 01:54:02;;;;;;;15.57;10.65;;;8.90;99.90;;;8.30;100.00;97716.94;4998547;28;20721;-38
2023/04/19 01:56:28;;;;;;;18.35;10.25;;;8.90;99.90;;;8.10;100.00;97687.63;5001735;28;20025;-38
2023/04/19 01:58:54;;;;;;;17.23;11.48;;;8.90;99.90;;;8.28;100.00;97715.25;5009589;28;21106;-37
2023/04/19 02:01:20;;;;;;;16.67;11.13;;;8.80;99.90;;;8.22;100.00;97706.59;5004664;28;20063;-38
2023/04/19 02:03:46;;;;;;;16.92;12.23;;;8.80;99.90;;;8.28;100.00;97710.00;4996380;28;20557;-38
2023/04/19 02:06:13;;;;;;;18.70;11.55;;;8.80;99.90;;;8.26;100.00;97704.75;5009360;28;20470;-37
2023/04/19 02:08:40;;;;;;;17.45;11.35;;;8.80;99.90;;;8.05;100.00;97681.59;5012083;28;20033;-37
2023/04/19 02:12:21;;;;;;;16.65;11.48;;;8.80;99.90;;;8.19;100.00;97709.28;5003212;28;20037;-37
2023/04/19 02:14:46;;;;;;;16.98;11.07;;;8.80;99.90;;;8.22;100.00;97705.75;5000101;28;20025;-37
2023/04/19 02:17:12;;;;;;;19.77;12.70;;;8.80;99.90;;;8.19;100.00;97703.19;5007039;28;20026;-37
2023/04/19 02:19:38;;;;;;;18.65;11.55;;;8.80;99.90;;;8.12;100.00;97689.31;5010163;28;20026;-38
2023/04/19 02:22:03;;;;;;;20.52;13.05;;;8.70;99.90;;;8.13;100.00;97695.41;5009961;28;20496;-37
2023/04/19 02:24:29;;;;;;;19.23;12.23;;;8.70;99.90;;;8.11;100.00;97690.22;5012344;28;20025;-37
2023/04/19 02:26:55;;;;;;;19.02;11.55;;;8.70;99.90;;;8.13;100.00;97688.41;5016255;28;20386;-37
2023/04/19 02:29:20;;;;;;;14.88;10.73;;;8.70;99.90;;;8.13;100.00;97688.41;5010330;28;20033;-38
2023/04/19 02:31:46;;;;;;;17.48;11.45;;;8.70;99.90;;;8.13;100.00;97677.03;5014731;28;20037;-37
2023/04/19 02:34:12;;;;;;;17.15;10.57;;;8.70;99.90;;;8.14;100.00;97684.03;5015463;28;20501;-37
2023/04/19 02:36:38;;;;;;;17.55;11.45;;;8.70;99.90;;;8.10;100.00;97685.84;5011513;28;20500;-37
2023/04/19 02:39:04;;;;;;;16.10;10.70;;;8.70;99.90;;;8.12;100.00;97678.81;5012532;28;20037;-37
2023/04/19 02:41:30;;;;;;;15.88;10.63;;;8.70;99.90;;;8.12;100.00;97686.69;5011541;28;20487;-37
2023/04/19 02:43:55;;;;;;;16.08;10.93;;;8.70;99.90;;;8.08;100.00;97668.41;5003340;28;20033;-37
2023/04/19 02:46:21;;;;;;;20.98;10.68;;;8.70;99.90;;;8.11;100.00;97673.56;5004313;28;20037;-37
2023/04/19 02:48:47;;;;;;;21.88;12.70;;;8.70;99.90;;;8.11;100.00;97677.09;5003296;28;20113;-37
2023/04/19 02:51:16;;;;;;;18.42;12.20;;;8.70;99.90;;;8.13;100.00;97670.03;5006189;28;20318;-37
2023/04/19 02:53:42;;;;;;;15.48;11.10;;;8.70;99.90;;;8.21;100.00;97672.47;5001099;28;21939;-38
2023/04/19 02:56:08;;;;;;;16.95;10.88;;;8.70;99.90;;;8.18;100.00;97669.91;5010013;28;20477;-38
2023/04/19 02:58:34;;;;;;;19.25;11.85;;;8.70;99.90;;;8.19;100.00;97677.75;5014655;28;20049;-37
2023/04/19 03:01:00;;;;;;;20.95;12.80;;;8.70;99.90;;;8.13;100.00;97661.25;5048209;23;20532;-43
2023/04/19 03:03:25;;;;;;;17.65;11.40;;;8.70;99.90;;;8.19;100.00;97674.28;5032627;28;20596;-44
2023/04/19 03:05:51;;;;;;;16.95;11.23;;;8.80;99.90;;;8.19;100.00;97674.28;5041988;28;20454;-45
2023/04/19 03:08:17;;;;;;;14.00;10.18;;;8.80;99.90;;;8.12;100.00;97659.56;5037702;28;20419;-44
2023/04/19 03:10:43;;;;;;;18.02;11.07;;;8.70;99.90;;;8.17;100.00;97676.94;5037246;28;20048;-47
2023/04/19 03:13:09;;;;;;;18.48;12.23;;;8.70;99.90;;;8.33;100.00;97666.09;5043084;28;20036;-44
2023/04/19 03:15:35;;;;;;;20.95;12.75;;;8.80;99.90;;;8.30;100.00;97667.00;5042528;28;20636;-45
2023/04/19 03:18:00;;;;;;;19.33;11.38;;;8.80;99.90;;;8.20;100.00;97668.09;5042329;28;20044;-43
2023/04/19 03:20:26;;;;;;;19.65;12.63;;;8.80;99.90;;;8.18;100.00;97673.41;5025597;28;20037;-46
2023/04/19 03:22:52;;;;;;;18.42;12.55;;;8.70;99.90;;;8.15;100.00;97670.00;5043083;28;20024;-47
2023/04/19 03:25:17;;;;;;;20.38;11.88;;;8.70;99.90;;;8.13;100.00;97669.16;5042748;28;20056;-47
2023/04/19 03:27:44;;;;;;;17.73;11.57;;;8.70;99.90;;;8.10;100.00;97667.47;5046050;28;21135;-45
2023/04/19 03:30:11;;;;;;;20.40;13.10;;;8.70;99.90;;;8.09;100.00;97664.88;5043806;28;20044;-48
2023/04/19 03:32:37;;;;;;;20.02;12.20;;;8.70;99.90;;;8.05;100.00;97660.59;5036825;28;20040;-49
2023/04/19 03:35:03;;;;;;;17.95;12.48;;;8.70;99.90;;;8.09;100.00;97664.88;5039049;28;20032;-45
2023/04/19 03:37:29;;;;;;;17.58;12.35;;;8.60;99.90;;;8.01;100.00;97668.53;5039052;28;20036;-45
2023/04/19 03:39:54;;;;;;;20.83;13.18;;;8.60;99.90;;;7.98;100.00;97657.22;5024972;28;20233;-47
2023/04/19 03:42:20;;;;;;;20.90;12.27;;;8.60;99.90;;;7.95;100.00;97652.03;5024582;28;20037;-46
2023/04/19 03:44:46;;;;;;;18.27;12.35;;;8.50;99.90;;;7.90;100.00;97656.56;5026157;28;20040;-46
2023/04/19 03:47:11;;;;;;;16.27;11.73;;;8.50;99.90;;;7.77;100.00;97635.81;5031608;28;20131;-44
2023/04/19 03:49:37;;;;;;;20.27;13.18;;;8.50;99.90;;;7.81;100.00;97649.75;5025902;28;20381;-45
2023/04/19 03:52:03;;;;;;;20.65;12.48;;;8.40;99.90;;;7.81;100.00;97655.00;5029680;28;20044;-47
2023/04/19 03:54:29;;;;;;;19.13;12.48;;;8.40;99.90;;;7.76;100.00;97654.22;5025578;28;22594;-46
2023/04/19 03:56:55;;;;;;;19.88;12.63;;;8.30;99.90;;;7.62;100.00;97625.63;5024473;28;20098;-46
2023/04/19 03:59:21;;;;;;;21.15;14.60;;;8.30;99.90;;;7.88;100.00;97651.34;5025366;28;20028;-45
2023/04/19 04:01:47;;;;;;;21.33;14.38;;;8.30;99.90;;;7.81;100.00;97647.13;5020570;28;20480;-48
2023/04/19 04:04:12;;;;;;;20.35;13.10;;;8.30;99.90;;;7.70;100.00;97644.72;5026920;28;20047;-49
2023/04/19 04:06:38;;;;;;;19.73;12.38;;;8.30;99.90;;;7.60;100.00;97651.06;5019028;28;20082;-45
2023/04/19 04:09:04;;;;;;;20.65;14.30;;;8.20;99.90;;;7.52;100.00;97643.34;5025184;28;20074;-50
2023/04/19 04:11:30;;;;;;;20.08;12.95;;;8.10;99.90;;;7.44;100.00;97650.50;5031880;28;20063;-45
2023/04/19 04:13:56;;;;;;;21.05;14.40;;;8.00;99.90;;;7.44;100.00;97645.25;5031976;28;20025;-46
2023/04/19 04:16:21;;;;;;;22.13;13.77;;;8.00;99.90;;;7.44;100.00;97653.97;5043403;28;20052;-45
2023/04/19 04:18:47;;;;;;;21.30;14.52;;;8.00;99.90;;;7.38;100.00;97656.75;5046189;28;20123;-45
2023/04/19 04:21:13;;;;;;;21.08;13.35;;;8.00;99.90;;;7.38;100.00;97648.88;5054608;28;20039;-46
2023/04/19 04:23:38;;;;;;;22.92;14.98;;;8.00;99.90;;;7.40;100.00;97652.31;5027719;28;20087;-49
2023/04/19 04:26:05;;;;;;;23.95;14.40;;;7.90;99.90;;;7.50;100.00;97655.66;5031459;28;20609;-46
2023/04/19 04:28:31;;;;;;;25.20;15.13;;;8.00;99.90;;;7.46;100.00;97653.97;5030195;28;20106;-45
2023/04/19 04:30:59;;;;;;;21.80;14.00;;;8.00;99.90;;;7.43;100.00;97662.78;5029817;28;20059;-45
2023/04/19 04:33:25;;;;;;;21.88;13.10;;;8.00;99.90;;;7.42;100.00;97666.28;5029810;28;20184;-45
2023/04/19 04:35:55;;;;;;;21.75;13.65;;;8.00;99.90;;;7.41;100.00;97663.69;5019129;28;20106;-45
2023/04/19 04:38:21;;;;;;;20.80;14.10;;;8.00;99.90;;;7.40;100.00;97660.19;5027535;28;20035;-46
2023/04/19 04:40:52;;;;;;;22.27;13.88;;;8.10;99.90;;;7.22;100.00;97631.72;5022338;28;20037;-45
2023/04/19 04:43:22;;;;;;;22.42;14.30;;;8.00;99.90;;;7.31;100.00;97655.13;5026310;28;20708;-44
2023/04/19 04:45:48;;;;;;;19.88;13.85;;;8.00;99.90;;;7.36;100.00;97649.81;5009671;28;20035;-49
2023/04/19 04:48:14;;;;;;;20.05;13.65;;;7.90;99.90;;;7.33;100.00;97653.34;5021010;28;20059;-48
2023/04/19 04:50:40;;;;;;;20.52;13.38;;;7.90;99.90;;;7.25;100.00;97653.50;5029781;28;20028;-46
2023/04/19 04:53:06;;;;;;;21.75;14.88;;;7.90;99.90;;;7.23;100.00;97659.66;5024834;28;20432;-49
2023/04/19 04:55:33;;;;;;;22.73;14.52;;;7.80;99.90;;;7.24;100.00;97657.00;5018700;28;20024;-47
2023/04/19 04:57:59;;;;;;;19.08;13.93;;;7.90;99.90;;;7.24;100.00;97654.38;5001976;28;20036;-48
2023/04/19 05:00:25;;;;;;;21.25;14.27;;;7.90;99.90;;;7.23;100.00;97642.19;5039143;28;20045;-47
2023/04/19 05:02:51;;;;;;;20.88;14.13;;;7.90;99.90;;;7.43;100.00;97661.91;5043619;28;20063;-45
2023/04/19 05:05:16;;;;;;;19.05;13.57;;;8.00;99.90;;;7.48;100.00;97664.44;5045339;28;20456;-45
2023/04/19 05:07:42;;;;;;;20.85;14.38;;;8.10;99.90;;;7.55;100.00;97660.78;5041382;28;20033;-49
2023/04/19 05:10:08;;;;;;;19.42;13.75;;;8.20;99.90;;;7.60;100.00;97662.41;5037447;28;20024;-46
2023/04/19 05:12:36;;;;;;;20.70;13.90;;;8.20;99.90;;;7.69;100.00;97663.13;5035543;28;20028;-47
2023/04/19 05:15:02;;;;;;;20.48;13.80;;;8.30;99.90;;;7.77;100.00;97664.69;5030889;28;20033;-48
2023/04/19 05:17:28;;;;;;;20.73;13.82;;;8.30;99.90;;;7.85;100.00;97664.53;5045470;28;20063;-49
2023/04/19 05:19:54;;;;;;;19.05;13.85;;;8.40;99.90;;;7.89;100.00;97668.81;5031529;28;22105;-50
2023/04/19 05:22:19;;;;;;;19.90;13.48;;;8.50;99.90;;;7.96;100.00;97667.78;5046957;28;20036;-49
2023/04/19 05:24:46;;;;;;;21.00;13.07;;;8.60;99.90;;;8.01;100.00;97665.06;5042309;28;20427;-48
2023/04/19 05:27:11;;;;;;;19.33;13.57;;;8.60;99.90;;;8.03;100.00;97677.25;5045706;28;20115;-48
2023/04/19 05:29:37;;;;;;;20.27;13.35;;;8.60;99.90;;;7.96;100.00;97680.03;5040890;28;20091;-44
2023/04/19 05:32:03;;;;;;;18.35;13.75;;;8.60;99.90;;;7.94;100.00;97677.44;5048340;28;20725;-49
2023/04/19 05:34:29;;;;;;;18.58;12.93;;;8.60;99.90;;;7.93;100.00;97680.09;5047399;28;20054;-49
2023/04/19 05:36:54;;;;;;;17.35;11.65;;;8.60;99.90;;;7.95;100.00;97686.19;5048965;28;20041;-49
2023/04/19 05:39:20;;;;;;;18.35;12.52;;;8.60;99.90;;;7.97;100.00;97679.16;5040081;28;20059;-49
2023/04/19 05:41:46;;;;;;;23.58;14.07;;;8.60;99.90;;;7.91;100.00;97674.88;5023389;28;20948;-48
2023/04/19 05:44:12;;;;;;;19.40;13.10;;;8.60;99.90;;;7.99;100.00;97674.72;5032546;28;20120;-48
2023/04/19 05:46:38;;;;;;;20.33;12.98;;;8.60;99.90;;;8.02;100.00;97682.53;5036957;28;20537;-49
2023/04/19 05:49:03;;;;;;;20.20;13.02;;;8.60;99.90;;;8.10;100.00;97685.84;5042894;28;20398;-48
2023/04/19 05:51:30;;;;;;;19.45;12.95;;;8.70;99.90;;;8.19;100.00;97683.00;5037606;28;20047;-47
2023/04/19 05:53:56;;;;;;;20.77;13.45;;;8.70;99.90;;;8.23;100.00;97683.81;5042548;28;20302;-47
2023/04/19 05:56:22;;;;;;;20.35;12.52;;;8.80;99.90;;;8.35;100.00;97685.31;5044791;28;20128;-45
2023/04/19 05:58:47;;;;;;;18.77;12.80;;;8.90;99.90;;;8.40;100.00;97688.69;5037778;28;20105;-48
2023/04/19 06:01:13;;;;;;;19.17;12.57;;;8.90;99.90;;;8.45;100.00;97684.19;5042619;28;20602;-48
2023/04/19 06:03:39;;;;;;;19.67;12.18;;;9.00;99.90;;;8.52;100.00;97690.19;5043733;28;20735;-45
2023/04/19 06:06:04;;;;;;;18.63;12.68;;;9.10;99.90;;;8.52;100.00;97682.28;5047136;28;20446;-47
2023/04/19 06:08:30;;;;;;;20.40;12.80;;;9.10;99.90;;;8.57;100.00;97678.63;5044895;28;20056;-46
2023/04/19 06:10:56;;;;;;;16.70;11.30;;;9.20;99.90;;;8.70;100.00;97678.34;5027111;28;20024;-45
2023/04/19 06:13:22;;;;;;;16.42;10.85;;;9.20;99.90;;;8.74;100.00;97691.38;5032935;28;20040;-48
2023/04/19 06:15:48;;;;;;;17.10;11.85;;;9.30;99.90;;;8.74;100.00;97688.75;5044815;28;20181;-45
2023/04/19 06:18:14;;;;;;;18.67;11.85;;;9.30;99.90;;;8.81;100.00;97680.69;5046288;28;20044;-46
2023/04/19 06:20:40;;;;;;;20.67;12.27;;;9.30;99.90;;;8.83;100.00;97690.31;5042274;28;20109;-46
2023/04/19 06:23:06;;;;;;;17.20;11.55;;;9.40;99.90;;;8.85;100.00;97685.84;5045753;28;20032;-48
2023/04/19 06:25:33;;;;;;;16.42;11.95;;;9.40;99.90;;;8.95;100.00;97690.00;5046832;28;20068;-45
2023/04/19 06:28:00;;;;;;;15.50;10.80;;;9.50;99.90;;;9.01;100.00;97691.59;5046519;28;20112;-43
2023/04/19 06:30:25;;;;;;;16.27;10.57;;;9.60;99.90;;;9.12;100.00;97691.31;5044349;28;20108;-45
2023/04/19 06:32:51;;;;;;;14.43;9.95;;;9.70;99.90;;;9.25;100.00;97684.81;5043727;28;20037;-43
2023/04/19 06:35:17;;;;;;;16.55;12.02;;;9.80;99.90;;;9.35;100.00;97686.28;5046947;28;20048;-42
2023/04/19 06:37:42;;;;;;;17.40;10.60;;;9.90;99.90;;;9.48;100.00;97683.31;5042719;28;20051;-39
2023/04/19 06:40:09;;;;;;;16.58;11.10;;;10.00;99.90;;;9.56;100.00;97689.22;5047683;28;20055;-47
2023/04/19 06:42:35;;;;;;;15.63;10.85;;;10.10;99.90;;;9.62;100.00;97688.16;5043705;28;20060;-44
2023/04/19 06:45:01;;;;;;;15.88;10.48;;;10.20;99.90;;;9.69;100.00;97687.97;5042937;28;20028;-44
2023/04/19 06:47:27;;;;;;;17.17;10.63;;;10.20;99.90;;;9.78;100.00;97689.50;5047154;28;20060;-46
2023/04/19 06:49:53;;;;;;;19.48;11.88;;;10.30;99.90;;;9.77;100.00;97689.53;5049996;28;20052;-46
2023/04/19 06:52:19;;;;;;;13.18;9.82;;;10.30;99.90;;;9.80;100.00;97684.16;5051709;28;20499;-47
2023/04/19 06:54:48;;;;;;;19.75;12.10;;;10.40;99.90;;;9.89;100.00;97684.75;5045703;28;20044;-44
2023/04/19 06:57:15;;;;;;;13.98;10.52;;;10.50;99.90;;;10.03;100.00;97691.38;5049725;28;20029;-43
2023/04/19 06:59:41;;;;;;;17.00;10.60;;;10.60;99.90;;;10.24;100.00;97679.31;5048647;28;20040;-46
2023/04/19 07:02:07;;;;;;;16.77;11.23;;;10.70;99.90;;;10.44;100.00;97689.25;5045953;28;20041;-43
2023/04/19 07:04:33;;;;;;;15.18;10.77;;;10.90;99.90;;;10.61;100.00;97679.03;5042161;28;20485;-44
2023/04/19 07:06:59;;;;;;;15.48;10.52;;;11.10;99.90;;;10.79;100.00;97689.91;5038742;28;20153;-40
2023/04/19 07:09:25;;;;;;;14.85;10.63;;;11.30;99.90;;;10.75;100.00;97690.91;5046781;28;20618;-43
2023/04/19 07:11:50;;;;;;;18.75;10.98;;;11.40;99.90;;;10.63;100.00;97671.94;5046920;28;20190;-43
2023/04/19 07:14:18;;;;;;;14.07;10.05;;;11.40;99.90;;;10.73;100.00;97692.75;5047615;28;20052;-44
2023/04/19 07:16:44;;;;;;;16.67;10.43;;;11.40;99.90;;;10.81;100.00;97678.38;5047719;28;20063;-43
2023/04/19 07:19:11;;;;;;;17.25;10.75;;;11.50;99.90;;;10.96;100.00;97681.41;5051802;28;20108;-44
2023/04/19 07:21:37;;;;;;;14.88;9.93;;;11.50;99.90;;;11.00;100.00;97675.09;5044416;28;20037;-46
2023/04/19 07:24:03;;;;;;;14.70;9.88;;;11.50;99.90;;;11.12;100.00;97671.19;5047986;28;20051;-43
2023/04/19 07:26:29;;;;;;;16.70;10.77;;;11.60;99.90;;;11.08;100.00;97673.09;5048908;28;20477;-43
2023/04/19 07:28:55;;;;;;;13.73;10.88;;;11.70;99.90;;;10.95;100.00;97667.38;5046733;28;20443;-45
2023/04/19 07:31:23;;;;;;;18.25;11.48;;;11.60;99.90;;;10.96;100.00;97670.88;5048167;28;20233;-47
2023/04/19 07:33:49;;;;;;;16.85;10.27;;;11.50;99.90;;;11.09;100.00;97669.53;5047748;28;20036;-48
2023/04/19 07:36:14;;;;;;;15.57;10.88;;;11.50;99.90;;;11.14;100.00;97672.00;5051864;28;20340;-48
2023/04/19 07:38:40;;;;;;;16.15;10.45;;;11.50;99.90;;;11.00;100.00;97665.44;5045419;28;20345;-48
2023/04/19 07:41:06;;;;;;;18.55;10.73;;;11.50;99.90;;;10.99;100.00;97658.44;5048328;28;20559;-49
2023/04/19 07:43:32;;;;;;;16.95;10.98;;;11.50;99.90;;;11.06;100.00;97670.50;5046326;28;20288;-49
2023/04/19 07:45:58;;;;;;;17.15;10.00;;;11.50;99.90;;;11.01;100.00;97666.28;5050337;28;20028;-48
2023/04/19 07:48:23;;;;;;;15.35;10.10;;;11.50;99.90;;;11.08;100.00;97665.16;5048985;28;20032;-49
2023/04/19 07:50:49;;;;;;;15.68;10.85;;;11.60;99.90;;;11.17;100.00;97656.91;5050004;28;20485;-49
2023/04/19 07:53:17;;;;;;;12.82;9.30;;;11.70;99.90;;;11.41;100.00;97656.97;5052061;28;20033;-47
2023/04/19 07:55:43;;;;;;;16.38;9.80;;;11.80;99.90;;;11.39;100.00;97653.50;5050548;28;20037;-48
2023/04/19 07:58:08;;;;;;;13.05;9.40;;;11.90;99.90;;;11.62;100.00;97653.53;5049567;28;20404;-48
2023/04/19 08:00:35;;;;;;;14.35;9.18;;;12.00;99.90;;;11.60;100.00;97647.44;5052417;28;20036;-47
2023/04/19 08:03:02;;;;;;;13.27;9.88;;;12.00;99.90;;;11.65;100.00;97640.22;5034579;28;20064;-50
2023/04/19 08:05:29;;;;;;;15.68;10.20;;;12.10;99.90;;;11.66;100.00;97651.63;5050332;28;20560;-49
2023/04/19 08:07:55;;;;;;;15.57;9.27;;;12.20;99.90;;;11.91;99.00;97654.25;5052424;28;20394;-49
2023/04/19 08:10:21;;;;;;;13.60;9.43;;;12.40;99.90;;;11.86;99.09;97648.25;5052600;28;20052;-49
2023/04/19 08:12:48;;;;;;;16.23;9.18;;;12.50;99.90;;;11.93;98.05;97641.81;5051989;28;20192;-49
2023/04/19 08:15:14;;;;;;;11.77;7.88;;;12.50;99.90;;;12.05;98.90;97639.66;5050264;28;20169;-49
2023/04/19 08:17:43;;;;;;;14.93;9.65;;;12.60;99.90;;;12.05;97.94;97644.94;5029715;28;20492;-49
2023/04/19 08:20:11;;;;;;;11.82;8.60;;;12.70;99.90;;;12.26;96.73;97653.78;5052027;28;20175;-49
2023/04/19 08:22:38;;;;;;;10.68;7.25;;;12.80;99.90;;;12.16;88.98;97651.50;5051040;28;20032;-52
2023/04/19 08:25:05;;;;;;;12.65;7.22;;;12.80;99.90;;;12.33;86.81;97644.72;5046471;28;20036;-49
2023/04/19 08:27:31;;;;;;;12.80;7.72;;;12.80;99.90;;;12.36;85.05;97644.56;5028591;28;20036;-50
2023/04/19 08:29:56;;;;;;;12.07;7.78;;;13.00;99.90;;;12.64;86.54;97633.72;5042865;28;21354;-47
2023/04/19 08:32:22;;;;;;;12.32;7.50;;;13.10;99.90;;;12.70;83.08;97649.34;5056004;28;20032;-50
2023/04/19 08:34:48;;;;;;;11.98;7.55;;;13.30;99.90;;;12.67;85.07;97652.13;5051296;28;20032;-48
2023/04/19 08:37:14;;;;;;;12.20;7.65;;;13.30;99.90;;;12.73;82.83;97651.88;5052569;28;20060;-48
2023/04/19 08:39:40;;;;;;;10.13;7.10;;;13.30;99.90;;;12.62;79.45;97647.97;5052745;28;20036;-45
2023/04/19 08:42:09;;;;;;;12.00;7.50;;;13.30;99.90;;;12.50;78.00;97651.97;5047871;28;20032;-48
2023/04/19 08:44:39;;;;;;;11.10;7.80;;;13.20;99.90;;;12.44;78.74;97647.78;5048197;28;20380;-48
2023/04/19 08:47:07;;;;;;;10.35;7.80;;;13.20;99.90;;;12.50;80.28;97646.66;5045400;28;20111;-49
2023/04/19 08:49:38;;;;;;;11.95;7.88;;;13.10;99.90;;;12.23;83.62;97645.06;5052684;28;20040;-47
2023/04/19 08:52:05;;;;;;;10.32;7.85;;;13.10;99.90;;;12.54;84.23;97640.31;5049988;28;20040;-45
2023/04/19 08:54:31;;;;;;;13.07;7.97;;;13.30;99.90;;;12.44;82.60;97642.50;5049833;28;20745;-49
2023/04/19 08:57:00;;;;;;;12.07;8.52;;;13.30;99.90;;;12.67;80.90;97630.09;5051792;28;21622;-47
2023/04/19 08:59:29;;;;;;;10.30;6.85;;;13.40;99.90;;;12.89;80.10;97630.91;5046085;28;20071;-48
2023/04/19 09:01:58;;;;;;;10.32;7.63;;;13.50;99.90;;;13.03;78.07;97619.75;5060670;23;20048;-39
2023/04/19 09:04:24;;;;;;;11.07;7.28;;;13.60;99.90;;;12.95;77.23;97622.69;5069835;28;20031;-39
2023/04/19 09:06:50;;;;;;;8.75;7.15;;;13.60;99.90;;;12.92;80.17;97627.25;5068847;28;20036;-38
2023/04/19 09:09:21;;;;;;;13.13;6.82;;;13.60;99.90;;;12.75;79.97;97620.91;5071528;28;20182;-39
2023/04/19 09:11:47;;;;;;;15.63;7.53;;;13.60;99.90;;;12.72;79.21;97618.41;5053827;28;20041;-39
2023/04/19 09:14:18;;;;;;;12.60;7.90;;;13.50;99.90;;;12.63;83.16;97629.34;5046089;28;20081;-39
2023/04/19 09:16:44;;;;;;;12.20;8.07;;;13.50;99.90;;;12.56;81.39;97617.31;5047199;28;20044;-39
2023/04/19 09:19:11;;;;;;;12.05;7.68;;;13.50;99.90;;;12.74;80.22;97613.03;5046111;28;20059;-39
2023/04/19 09:21:38;;;;;;;10.63;6.88;;;13.60;99.90;;;13.07;79.09;97615.19;5051498;28;21125;-39
2023/04/19 09:24:05;;;;;;;12.50;8.50;;;13.80;99.90;;;13.10;81.67;97617.66;5050156;28;20028;-38
2023/04/19 09:26:31;;;;;;;13.77;8.55;;;13.90;99.90;;;13.28;75.43;97619.53;5050052;28;20325;-38
2023/04/19 09:29:00;;;;;;;12.68;7.55;;;14.10;99.90;;;13.51;76.74;97610.59;5051831;28;20032;-38
2023/04/19 09:31:32;;;;;;;10.73;7.80;;;14.10;99.90;;;13.67;76.14;97613.38;5049473;28;20029;-38
2023/04/19 09:34:11;;;;;;;11.63;8.15;;;14.40;99.90;;;13.74;75.25;97601.56;5048064;28;20652;-38
2023/04/19 09:36:36;;;;;;;14.32;8.73;;;14.60;99.90;;;13.73;74.71;97604.31;5054026;28;20388;-38
2023/04/19 09:39:02;;;;;;;12.55;8.38;;;14.60;99.90;;;14.01;75.42;97606.50;5050026;28;20349;-38
2023/04/19 09:41:28;;;;;;;12.10;8.18;;;14.80;99.90;;;13.99;73.31;97587.16;5049224;28;20036;-39
2023/04/19 09:44:08;;;;;;;14.68;8.77;;;15.00;99.90;;;14.05;72.32;97600.13;5048504;28;20551;-39
2023/04/19 09:46:36;;;;;;;14.43;9.35;;;15.00;99.90;;;13.73;75.07;97597.19;5048486;28;20035;-39
2023/04/19 09:49:16;;;;;;;12.52;9.05;;;14.70;99.90;;;13.92;75.71;97597.19;5049590;28;20028;-39
2023/04/19 09:51:43;;;;;;;14.15;8.90;;;14.70;99.90;;;13.94;73.06;97592.69;5049523;28;20028;-38
2023/04/19 09:54:11;;;;;;;10.77;7.70;;;14.80;99.90;;;14.13;69.24;97589.16;5048780;28;20111;-39
2023/04/19 09:56:37;;;;;;;11.23;8.00;;;14.80;99.90;;;14.21;75.50;97586.13;5053509;28;20399;-39
2023/04/19 09:59:05;;;;;;;11.18;7.68;;;14.80;99.90;;;14.08;69.04;97581.41;5052530;28;20039;-39
2023/04/19 10:01:53;;;;;;;10.85;7.10;;;14.80;99.90;;;13.98;67.30;97584.56;5048892;28;20085;-39
2023/04/19 10:04:23;;;;;;;10.35;6.93;;;14.70;99.90;;;14.02;70.63;97581.72;5048645;28;20173;-39
2023/04/19 10:06:51;;;;;;;12.20;7.10;;;14.60;99.90;;;14.24;68.64;97578.88;5046566;28;20025;-39
2023/04/19 10:09:21;;;;;;;10.35;7.07;;;14.80;99.90;;;14.22;66.18;97582.53;5051645;28;20078;-38
2023/04/19 10:11:52;;;;;;;11.77;7.53;;;14.90;99.90;;;14.17;67.77;97576.59;5047090;28;20024;-39